Time;durP1;ratioP1;P1;durP2;ratioP2;P2;SDS_P1;SDS_P2;PMS_P1;PMS_P2;Temp;Humidity;BMP_temperature;BMP_pressure;BME280_temperature;BME280_humidity;BME280_pressure;Samples;Min_cycle;Max_cycle;Signal;HPM_P1;HPM_P2
2023/05/08 00:02:26;;;;;;;11.97;8.63;;;;;;;3.71;100.00;97285.28;10416534;28;20335;-67
2023/05/08 00:07:26;;;;;;;11.60;9.40;;;;;;;3.81;100.00;97274.31;10416187;28;20217;-66
2023/05/08 00:12:26;;;;;;;13.60;9.00;;;;;;;3.84;100.00;97268.94;10416037;28;20200;-66
2023/05/08 00:17:27;;;;;;;10.57;8.73;;;;;;;3.80;100.00;97257.09;10415626;28;20454;-67
2023/05/08 00:22:28;;;;;;;14.67;9.17;;;;;;;3.70;100.00;97252.50;10415678;28;20543;-67
2023/05/08 00:27:28;;;;;;;11.77;9.47;;;;;;;3.43;100.00;97252.56;10415515;28;20204;-66
2023/05/08 00:32:29;;;;;;;14.57;9.57;;;;;;;3.52;100.00;97254.56;10415441;28;20187;-66
2023/05/08 00:37:29;;;;;;;11.63;8.73;;;;;;;3.73;100.00;97256.69;10415384;28;20216;-66
2023/05/08 00:42:29;;;;;;;11.43;9.03;;;;;;;3.88;100.00;97252.25;10414988;28;20220;-66
2023/05/08 00:47:30;;;;;;;11.47;8.73;;;;;;;3.87;100.00;97246.22;10414650;28;20215;-66
2023/05/08 00:52:32;;;;;;;13.00;8.73;;;;;;;3.59;100.00;97241.22;10414607;28;20199;-66
2023/05/08 00:57:36;;;;;;;14.43;9.87;;;;;;;3.43;100.00;97249.97;10413077;28;20220;-66
2023/05/08 01:02:37;;;;;;;11.77;9.13;;;;;;;3.45;100.00;97249.88;10411990;28;20555;-66
2023/05/08 01:07:38;;;;;;;11.73;9.60;;;;;;;3.43;100.00;97252.56;10411950;28;20207;-66
2023/05/08 01:12:56;;;;;;;12.87;10.00;;;;;;;3.30;100.00;97252.50;10412049;28;20185;-66
2023/05/08 01:18:26;;;;;;;10.77;8.80;;;;;;;3.08;100.00;97247.03;10412055;28;20236;-66
2023/05/08 01:23:45;;;;;;;16.33;10.13;;;;;;;2.97;100.00;97248.53;10412008;28;20257;-66
2023/05/08 01:29:18;;;;;;;12.60;9.70;;;;;;;3.08;100.00;97247.88;10412763;28;20322;-67
2023/05/08 01:34:23;;;;;;;12.23;9.87;;;;;;;2.91;100.00;97256.69;10369251;28;20637;-66
2023/05/08 01:39:40;;;;;;;14.33;10.50;;;;;;;2.83;100.00;97256.31;10411209;28;20216;-66
2023/05/08 01:44:48;;;;;;;11.60;9.37;;;;;;;2.58;100.00;97265.59;10411235;28;20602;-67
2023/05/08 01:49:49;;;;;;;14.03;10.60;;;;;;;2.40;100.00;97264.94;10412191;28;20283;-66
2023/05/08 01:54:57;;;;;;;14.20;10.83;;;;;;;2.40;100.00;97259.75;10411308;28;20188;-66
2023/05/08 02:00:00;;;;;;;12.10;9.77;;;;;;;2.11;100.00;97258.91;10410652;28;20224;-67
2023/05/08 02:05:05;;;;;;;12.00;9.57;;;;;;;1.93;100.00;97265.97;10394093;28;20188;-66
2023/05/08 02:10:07;;;;;;;12.67;9.17;;;;;;;1.85;100.00;97268.19;10410713;28;20266;-67
2023/05/08 02:15:09;;;;;;;16.30;11.67;;;;;;;1.61;100.00;97258.34;10408917;28;20567;-65
2023/05/08 02:20:13;;;;;;;19.23;11.93;;;;;;;1.46;100.00;97272.13;10438217;28;20251;-66
2023/05/08 02:25:15;;;;;;;13.67;10.80;;;;;;;1.59;100.00;97273.06;10434577;28;20198;-66
2023/05/08 02:30:16;;;;;;;14.07;10.33;;;;;;;1.44;100.00;97267.06;10451830;28;20587;-67
2023/05/08 02:35:17;;;;;;;15.57;10.60;;;;;;;1.33;100.00;97267.66;10451086;28;20184;-67
2023/05/08 02:40:19;;;;;;;15.30;10.77;;;;;;;1.24;100.00;97269.00;10450880;28;20219;-67
2023/05/08 02:45:22;;;;;;;16.40;11.87;;;;;;;1.10;100.00;97273.22;10452172;28;20197;-67
2023/05/08 02:50:35;;;;;;;13.67;10.10;;;;;;;1.02;100.00;97277.06;10368519;28;20189;-66
2023/05/08 02:55:42;;;;;;;15.43;11.73;;;;;;;0.85;100.00;97274.56;10369075;28;20205;-66
2023/05/08 03:00:57;;;;;;;15.40;11.80;;;;;;;0.69;100.00;97277.97;10369735;28;20240;-66
2023/05/08 03:05:59;;;;;;;16.43;11.60;;;;;;;0.56;100.00;97294.16;10400761;28;20573;-66
2023/05/08 03:11:14;;;;;;;16.27;11.67;;;;;;;0.43;100.00;97291.38;10392866;28;20655;-67
2023/05/08 03:16:17;;;;;;;16.93;12.00;;;;;;;0.41;100.00;97298.34;10392784;28;20232;-67
2023/05/08 03:21:19;;;;;;;21.27;13.57;;;;;;;0.16;100.00;97299.59;10409131;28;20571;-67
2023/05/08 03:26:20;;;;;;;16.70;12.13;;;;;;;0.17;100.00;97290.97;10413478;28;20292;-67
2023/05/08 03:31:21;;;;;;;14.77;11.23;;;;;;;0.06;100.00;97293.25;10416701;28;20192;-68
2023/05/08 03:36:24;;;;;;;14.77;10.73;;;;;;;0.01;100.00;97290.06;10415861;28;20220;-67
2023/05/08 03:41:25;;;;;;;17.93;13.00;;;;;;;0.19;100.00;97301.19;10416151;28;20188;-67
2023/05/08 03:46:26;;;;;;;18.07;13.33;;;;;;;0.09;100.00;97309.41;10415768;28;20214;-67
2023/05/08 03:51:27;;;;;;;19.83;13.40;;;;;;;0.07;100.00;97305.22;10415693;28;20697;-68
2023/05/08 03:56:27;;;;;;;19.10;13.17;;;;;;;0.06;100.00;97303.53;10399249;28;20219;-67
2023/05/08 04:01:39;;;;;;;18.67;13.43;;;;;;;0.23;100.00;97323.31;10416344;28;20195;-67
2023/05/08 04:06:47;;;;;;;17.97;12.43;;;;;;;0.20;100.00;97331.19;10414937;28;20209;-67
2023/05/08 04:12:15;;;;;;;19.87;13.90;;;;;;;0.14;100.00;97333.19;10398597;28;20188;-66
2023/05/08 04:17:22;;;;;;;23.50;14.40;;;;;;;0.26;100.00;97330.88;10415695;28;20231;-67
2023/05/08 04:22:24;;;;;;;21.93;13.47;;;;;;;0.48;100.00;97346.09;10397970;28;20671;-67
2023/05/08 04:27:25;;;;;;;17.60;12.60;;;;;;;0.52;100.00;97343.28;10395342;28;20207;-67
2023/05/08 04:32:26;;;;;;;19.77;13.90;;;;;;;0.57;100.00;97350.78;10413704;28;20193;-67
2023/05/08 04:37:30;;;;;;;19.47;14.23;;;;;;;0.79;100.00;97355.66;10396857;28;20653;-67
2023/05/08 04:42:35;;;;;;;17.93;12.83;;;;;;;1.08;100.00;97358.47;10413687;28;20659;-67
2023/05/08 04:47:35;;;;;;;18.07;12.63;;;;;;;1.31;100.00;97352.06;10413362;28;20208;-67
2023/05/08 04:52:36;;;;;;;20.37;12.63;;;;;;;1.60;100.00;97362.56;10413586;28;20188;-67
2023/05/08 04:57:36;;;;;;;17.77;12.27;;;;;;;1.77;100.00;97367.59;10413266;28;20224;-67
2023/05/08 05:02:37;;;;;;;19.80;15.30;;;;;;;1.88;100.00;97367.00;10413006;28;20267;-67
2023/05/08 05:07:38;;;;;;;17.23;12.53;;;;;;;2.33;100.00;97359.31;10412451;28;20355;-68
2023/05/08 05:12:39;;;;;;;16.80;12.77;;;;;;;2.63;100.00;97356.69;10412536;28;20193;-67
2023/05/08 05:17:40;;;;;;;18.50;14.27;;;;;;;2.76;100.00;97346.41;10433966;23;20274;-67
2023/05/08 05:22:40;;;;;;;15.30;12.03;;;;;;;3.29;100.00;97351.00;10410833;28;20755;-64
2023/05/08 05:27:42;;;;;;;16.67;11.87;;;;;;;3.50;100.00;97344.47;10412631;28;20201;-64
2023/05/08 05:32:42;;;;;;;14.90;12.40;;;;;;;3.82;100.00;97343.38;10411517;28;20181;-64
2023/05/08 05:37:43;;;;;;;14.27;10.40;;;;;;;4.21;100.00;97334.75;10412020;28;20250;-64
2023/05/08 05:42:48;;;;;;;9.37;7.60;;;;;;;4.81;100.00;97329.91;10412074;28;20208;-64
2023/05/08 05:47:49;;;;;;;15.73;10.53;;;;;;;5.46;100.00;97325.38;10411307;28;20211;-64
2023/05/08 05:52:51;;;;;;;15.13;7.00;;;;;;;6.18;100.00;97319.34;10411353;28;20275;-64
2023/05/08 05:57:53;;;;;;;11.70;7.00;;;;;;;6.91;100.00;97304.31;10411944;28;20290;-65
2023/05/08 06:02:54;;;;;;;6.77;5.37;;;;;;;7.67;100.00;97267.88;10411369;28;20196;-65
2023/05/08 06:07:54;;;;;;;10.47;4.80;;;;;;;8.94;93.37;97237.31;10396880;28;20239;-66
2023/05/08 06:12:55;;;;;;;4.37;3.23;;;;;;;10.29;75.36;97124.91;10410492;28;20220;-65
2023/05/08 06:17:57;;;;;;;4.25;2.92;;;;;;;11.05;71.34;97102.81;10410548;28;20637;-65
2023/05/08 06:22:57;;;;;;;4.68;3.50;;;;;;;12.02;72.77;97159.84;10411390;28;20193;-66
2023/05/08 06:27:57;;;;;;;3.40;3.10;;;;;;;12.85;70.27;97162.72;10411831;28;20208;-66
2023/05/08 06:32:58;;;;;;;3.67;2.70;;;;;;;13.46;58.20;97016.94;10405323;28;20292;-66
2023/05/08 06:37:58;;;;;;;3.75;2.63;;;;;;;12.72;59.00;97044.03;10391385;28;20212;-65
2023/05/08 06:42:59;;;;;;;2.70;2.38;;;;;;;11.95;61.85;97086.13;10411373;28;20216;-66
2023/05/08 06:47:59;;;;;;;3.92;3.03;;;;;;;11.97;63.89;97120.09;10410714;28;20366;-66
2023/05/08 06:52:59;;;;;;;2.83;2.60;;;;;;;12.46;65.74;97176.34;10411422;28;20196;-67
2023/05/08 06:58:00;;;;;;;2.67;2.40;;;;;;;12.69;61.52;97115.31;10442917;28;20903;-66
2023/05/08 07:03:00;;;;;;;3.17;2.88;;;;;;;12.80;60.23;97101.06;10456504;28;20223;-65
2023/05/08 07:08:01;;;;;;;3.03;2.25;;;;;;;13.02;57.31;97057.56;10456965;28;20211;-66
2023/05/08 07:13:01;;;;;;;3.90;2.13;;;;;;;13.38;55.96;97038.81;10446590;28;20184;-65
2023/05/08 07:18:01;;;;;;;2.90;2.08;;;;;;;12.38;55.89;97028.38;10422931;28;20243;-65
2023/05/08 07:23:02;;;;;;;2.05;1.63;;;;;;;12.17;57.71;97074.25;10408871;28;20188;-64
2023/05/08 07:28:02;;;;;;;2.28;2.08;;;;;;;13.38;55.26;97047.56;10414993;28;20248;-65
2023/05/08 07:33:02;;;;;;;3.05;1.90;;;;;;;12.74;53.15;96992.13;10414678;28;20188;-65
2023/05/08 07:38:03;;;;;;;2.45;2.05;;;;;;;13.13;55.87;97083.53;10414500;28;20789;-65
2023/05/08 07:43:03;;;;;;;4.07;2.10;;;;;;;12.85;54.55;97047.03;10413932;28;20227;-65
2023/05/08 07:48:03;;;;;;;2.08;1.85;;;;;;;13.22;58.08;97129.09;10413899;28;20204;-65
2023/05/08 07:53:05;;;;;;;2.55;2.00;;;;;;;13.80;56.61;97108.88;10412255;28;20189;-65
2023/05/08 07:58:05;;;;;;;2.33;2.13;;;;;;;14.40;56.00;97117.28;10413232;28;20221;-67
2023/05/08 08:03:06;;;;;;;2.38;2.03;;;;;;;14.65;50.43;97006.47;10410042;28;20299;-66
2023/05/08 08:08:06;;;;;;;2.28;2.05;;;;;;;15.55;50.29;97040.03;10414938;28;20200;-65
2023/05/08 08:13:06;;;;;;;4.03;2.10;;;;;;;15.07;54.44;97114.19;10413654;28;20207;-67
2023/05/08 08:18:07;;;;;;;2.70;2.13;;;;;;;14.17;51.01;97025.78;10414345;28;20240;-65
2023/05/08 08:23:07;;;;;;;3.10;1.80;;;;;;;14.55;51.22;97033.84;10414059;28;20250;-66
2023/05/08 08:28:07;;;;;;;2.08;1.88;;;;;;;14.93;48.28;96983.84;10414001;28;20766;-66
2023/05/08 08:33:08;;;;;;;2.83;2.00;;;;;;;15.43;47.84;96986.84;10414099;28;20223;-63
2023/05/08 08:38:08;;;;;;;3.83;1.67;;;;;;;15.51;46.98;96980.66;10413835;28;20224;-64
2023/05/08 08:43:08;;;;;;;2.85;1.35;;;;;;;14.64;45.25;96910.72;10415410;28;20250;-66
2023/05/08 08:48:12;;;;;;;1.75;1.63;;;;;;;13.24;47.39;96945.56;10415376;28;20295;-66
2023/05/08 08:53:26;;;;;;;2.13;1.80;;;;;;;13.59;49.74;97012.00;10413215;28;20204;-66
2023/05/08 08:58:36;;;;;;;1.92;1.60;;;;;;;15.01;46.13;96980.31;10410830;28;20221;-66
2023/05/08 09:03:36;;;;;;;2.13;1.65;;;;;;;14.33;46.91;96977.44;10410916;28;20224;-66
2023/05/08 09:08:37;;;;;;;7.53;2.22;;;;;;;15.54;48.66;97058.72;10412283;28;20210;-66
2023/05/08 09:13:37;;;;;;;4.43;2.00;;;;;;;16.20;44.53;96979.56;10411148;28;20281;-68
2023/05/08 09:18:38;;;;;;;1.75;1.48;;;;;;;14.33;46.13;96950.28;10412707;28;20247;-66
2023/05/08 09:23:57;;;;;;;1.92;1.73;;;;;;;13.51;46.62;96948.84;10411845;28;20709;-66
2023/05/08 09:29:10;;;;;;;2.20;1.55;;;;;;;13.61;46.47;96956.53;10411140;28;20216;-66
2023/05/08 09:34:25;;;;;;;2.92;2.08;;;;;;;13.85;47.32;96985.41;10411993;28;20196;-65
2023/05/08 09:39:26;;;;;;;2.15;1.80;;;;;;;15.13;46.55;96994.72;10411924;28;20255;-67
2023/05/08 09:44:26;;;;;;;2.63;1.80;;;;;;;16.04;44.37;96965.56;10433879;28;20230;-64
2023/05/08 09:49:27;;;;;;;1.88;1.70;;;;;;;16.19;44.94;97009.66;10452889;28;20211;-66
2023/05/08 09:54:27;;;;;;;1.88;1.60;;;;;;;16.76;44.45;96998.28;10452480;28;20207;-66
2023/05/08 09:59:28;;;;;;;2.78;2.03;;;;;;;17.09;43.51;96997.81;10432156;28;20211;-66
2023/05/08 10:04:35;;;;;;;1.98;1.75;;;;;;;15.59;43.55;96956.00;10422467;28;20666;-66
2023/05/08 10:09:36;;;;;;;2.22;1.90;;;;;;;17.01;42.00;96950.28;10407313;28;20280;-66
2023/05/08 10:14:36;;;;;;;1.92;1.60;;;;;;;17.14;41.39;96949.56;10386833;28;20197;-66
2023/05/08 10:19:39;;;;;;;4.55;1.83;;;;;;;16.99;42.35;96968.19;10385886;28;20327;-66
2023/05/08 10:24:40;;;;;;;1.88;1.67;;;;;;;18.35;41.13;96966.97;10399475;28;20228;-66
2023/05/08 10:29:46;;;;;;;4.50;2.00;;;;;;;19.39;38.40;96941.72;10409595;28;20299;-66
2023/05/08 10:34:59;;;;;;;1.67;1.30;;;;;;;17.25;39.27;96888.13;10399914;28;20184;-66
2023/05/08 10:40:01;;;;;;;1.70;1.60;;;;;;;16.69;40.94;96919.84;10410552;28;20235;-66
2023/05/08 10:45:03;;;;;;;2.47;1.90;;;;;;;15.80;39.91;96868.13;10410928;28;20199;-66
2023/05/08 10:50:27;;;;;;;3.42;1.40;;;;;;;16.04;37.17;96796.41;10408890;28;20204;-66
2023/05/08 10:55:29;;;;;;;1.85;1.50;;;;;;;16.89;38.47;96864.47;10409444;28;20408;-66
2023/05/08 11:01:05;;;;;;;2.45;1.50;;;;;;;17.76;37.84;96870.25;10409011;28;20303;-67
2023/05/08 11:06:06;;;;;;;1.58;1.45;;;;;;;17.20;36.69;96816.44;10390646;28;20229;-67
2023/05/08 11:11:13;;;;;;;2.45;1.60;;;;;;;17.34;36.46;96812.00;10384545;28;20193;-68
2023/05/08 11:16:13;;;;;;;2.63;1.50;;;;;;;18.22;35.32;96829.00;10422251;23;20319;-67
2023/05/08 11:21:15;;;;;;;2.03;1.60;;;;;;;17.08;38.15;96855.84;10405965;28;20196;-67
2023/05/08 11:26:15;;;;;;;7.60;1.60;;;;;;;19.11;40.12;96975.66;10407387;28;20690;-67
2023/05/08 11:31:15;;;;;;;2.72;1.67;;;;;;;18.93;35.64;96841.72;10409466;28;20197;-67
2023/05/08 11:36:21;;;;;;;3.80;1.50;;;;;;;19.41;35.34;96859.97;10407660;28;20251;-67
2023/05/08 11:41:22;;;;;;;2.33;1.50;;;;;;;19.20;35.85;96862.88;10409204;28;20276;-66
2023/05/08 11:46:34;;;;;;;3.40;1.40;;;;;;;20.51;33.06;96818.31;10411986;28;20672;-67
2023/05/08 11:51:35;;;;;;;2.35;1.60;;;;;;;19.02;37.83;96921.94;10416265;28;20868;-67
2023/05/08 11:56:37;;;;;;;1.50;1.40;;;;;;;18.15;37.62;96874.09;10415742;28;20216;-67
2023/05/08 12:01:37;;;;;;;2.30;1.60;;;;;;;18.13;39.54;96937.09;10416041;28;20199;-67
2023/05/08 12:06:40;;;;;;;1.63;1.52;;;;;;;18.43;39.14;96934.94;10415254;28;20295;-67
2023/05/08 12:11:42;;;;;;;1.92;1.65;;;;;;;17.01;38.25;96862.94;10414288;28;20635;-67
2023/05/08 12:16:43;;;;;;;2.08;1.30;;;;;;;16.92;39.02;96885.25;10415244;28;20234;-67
2023/05/08 12:21:50;;;;;;;3.17;1.48;;;;;;;16.58;39.57;96895.56;10415212;28;20194;-65
2023/05/08 12:26:56;;;;;;;1.92;1.48;;;;;;;15.85;40.31;96869.22;10415226;28;20197;-66
2023/05/08 12:31:57;;;;;;;1.65;1.48;;;;;;;17.78;38.21;96892.91;10414987;28;20254;-67
2023/05/08 12:37:03;;;;;;;1.80;1.70;;;;;;;16.61;39.36;96888.25;10414380;28;20314;-66
2023/05/08 12:42:03;;;;;;;4.05;1.42;;;;;;;17.50;39.58;96913.34;10413627;28;20201;-66
2023/05/08 12:47:05;;;;;;;1.95;1.70;;;;;;;20.05;38.21;96965.72;10414324;28;20247;-67
2023/05/08 12:52:07;;;;;;;21.23;2.10;;;;;;;20.13;36.21;96905.13;10414188;28;20277;-67
2023/05/08 12:57:14;;;;;;;1.88;1.55;;;;;;;17.46;40.47;96907.63;10413371;28;20290;-66
2023/05/08 13:02:20;;;;;;;2.67;1.58;;;;;;;17.31;40.32;96906.94;10413744;28;20196;-66
2023/05/08 13:07:21;;;;;;;1.52;1.40;;;;;;;18.46;37.26;96867.41;10413242;28;20208;-66
2023/05/08 13:12:21;;;;;;;2.03;1.40;;;;;;;18.36;39.29;96913.72;10412654;28;20196;-66
2023/05/08 13:17:21;;;;;;;1.65;1.35;;;;;;;21.68;36.19;96950.06;10412797;28;20242;-66
2023/05/08 13:22:25;;;;;;;2.55;1.65;;;;;;;19.46;35.24;96854.03;10412858;28;20224;-66
2023/05/08 13:27:25;;;;;;;2.33;1.50;;;;;;;18.42;36.36;96821.88;10412718;28;20209;-66
2023/05/08 13:32:26;;;;;;;3.88;1.45;;;;;;;18.71;36.45;96823.31;10412397;28;20188;-66
2023/05/08 13:37:26;;;;;;;1.88;1.35;;;;;;;18.26;36.97;96823.09;10412424;28;20607;-66
2023/05/08 13:42:26;;;;;;;1.30;1.20;;;;;;;19.45;35.61;96833.81;10398593;28;20548;-66
2023/05/08 13:47:27;;;;;;;1.40;1.23;;;;;;;19.87;33.86;96794.38;10369386;28;20623;-66
2023/05/08 13:52:30;;;;;;;2.15;1.35;;;;;;;20.74;32.34;96771.66;10368066;28;20647;-66
2023/05/08 13:57:30;;;;;;;1.50;1.20;;;;;;;19.93;31.57;96712.97;10367947;28;20256;-66
2023/05/08 14:02:31;;;;;;;2.13;1.30;;;;;;;19.50;30.45;96679.88;10367983;28;20197;-66
2023/05/08 14:07:31;;;;;;;3.35;1.20;;;;;;;23.07;30.00;96788.13;10366885;28;20210;-66
2023/05/08 14:12:34;;;;;;;1.00;0.90;;;;;;;24.02;26.39;96690.47;10366550;28;20189;-66
2023/05/08 14:17:35;;;;;;;4.47;1.10;;;;;;;21.38;30.69;96750.88;10381843;28;20290;-66
2023/05/08 14:22:35;;;;;;;2.58;1.50;;;;;;;20.75;33.08;96821.19;10371677;28;20251;-66
2023/05/08 14:27:35;;;;;;;3.60;1.30;;;;;;;19.98;33.30;96784.91;10365949;28;20219;-66
2023/05/08 14:32:36;;;;;;;1.55;1.40;;;;;;;22.51;29.57;96753.78;10365407;28;20197;-67
2023/05/08 14:37:36;;;;;;;1.33;1.10;;;;;;;23.54;28.21;96741.75;10364935;28;20299;-66
2023/05/08 14:42:37;;;;;;;5.22;1.75;;;;;;;23.09;29.04;96744.13;10365593;28;20200;-66
2023/05/08 14:47:38;;;;;;;1.95;1.05;;;;;;;22.28;27.82;96671.78;10366196;28;20217;-66
2023/05/08 14:52:38;;;;;;;3.33;1.13;;;;;;;24.68;29.30;96814.97;10405590;28;20207;-66
2023/05/08 14:57:39;;;;;;;4.00;1.13;;;;;;;21.26;28.75;96649.56;10407628;28;20624;-66
2023/05/08 15:02:39;;;;;;;3.42;1.13;;;;;;;20.41;29.69;96664.47;10404181;28;20571;-66
2023/05/08 15:07:40;;;;;;;1.45;0.90;;;;;;;18.74;28.95;96566.50;10364735;28;20209;-65
2023/05/08 15:12:40;;;;;;;5.22;1.88;;;;;;;19.92;29.59;96648.34;10365550;28;20272;-65
2023/05/08 15:17:40;;;;;;;1.98;1.20;;;;;;;20.68;31.14;96741.41;10365532;28;20225;-66
2023/05/08 15:22:41;;;;;;;2.45;1.23;;;;;;;18.08;31.50;96639.94;10393701;28;20188;-66
2023/05/08 15:27:41;;;;;;;1.83;1.10;;;;;;;17.56;32.93;96666.22;10414426;28;20196;-65
2023/05/08 15:32:42;;;;;;;1.17;1.08;;;;;;;19.31;31.94;96718.81;10413684;28;20195;-65
2023/05/08 15:37:42;;;;;;;2.15;1.27;;;;;;;20.06;30.28;96688.94;10376495;28;20236;-65
2023/05/08 15:42:42;;;;;;;1.15;0.95;;;;;;;19.99;30.75;96701.47;10376581;28;20204;-65
2023/05/08 15:47:43;;;;;;;3.80;1.42;;;;;;;18.99;32.03;96697.50;10376381;28;20217;-65
2023/05/08 15:52:43;;;;;;;2.10;1.27;;;;;;;18.14;31.87;96666.44;10374386;28;20193;-65
2023/05/08 15:57:44;;;;;;;1.55;1.08;;;;;;;18.53;32.29;96701.09;10374397;28;20228;-65
2023/05/08 16:02:46;;;;;;;1.27;1.13;;;;;;;18.45;31.24;96656.19;10373549;28;20194;-65
2023/05/08 16:07:49;;;;;;;2.17;1.10;;;;;;;18.19;32.67;96681.72;10373770;28;20307;-65
2023/05/08 16:12:49;;;;;;;3.92;2.17;;;;;;;17.83;33.32;96680.28;10411652;28;20265;-66
2023/05/08 16:17:50;;;;;;;2.15;1.33;;;;;;;17.96;32.41;96661.78;10402441;28;20244;-66
2023/05/08 16:22:54;;;;;;;1.58;1.15;;;;;;;17.64;33.99;96697.78;10375272;28;20190;-66
2023/05/08 16:27:55;;;;;;;2.47;1.40;;;;;;;17.40;33.61;96670.06;10374408;28;20758;-66
2023/05/08 16:32:55;;;;;;;1.30;1.20;;;;;;;16.66;33.49;96645.97;10373548;28;20280;-65
2023/05/08 16:37:55;;;;;;;1.70;1.10;;;;;;;15.95;33.99;96633.75;10373722;28;20229;-65
2023/05/08 16:42:56;;;;;;;1.27;1.10;;;;;;;15.64;34.16;96628.81;10373849;28;20185;-65
2023/05/08 16:47:56;;;;;;;2.13;1.27;;;;;;;15.52;33.96;96620.56;10373364;28;20243;-66
2023/05/08 16:52:56;;;;;;;1.67;1.25;;;;;;;15.49;35.00;96658.72;10373342;28;20200;-66
2023/05/08 16:57:57;;;;;;;4.28;1.20;;;;;;;15.49;35.69;96677.22;10373132;28;20320;-66
2023/05/08 17:02:57;;;;;;;1.50;1.35;;;;;;;15.46;36.03;96688.16;10372823;28;20185;-67
2023/05/08 17:07:57;;;;;;;2.00;1.27;;;;;;;15.15;37.57;96728.03;10372670;28;20272;-66
2023/05/08 17:12:58;;;;;;;2.78;1.58;;;;;;;15.22;38.00;96744.75;10372504;28;20216;-66
2023/05/08 17:17:58;;;;;;;17.48;7.25;;;;;;;15.24;38.87;96774.41;10408792;23;20324;-66
2023/05/08 17:22:59;;;;;;;11.57;4.10;;;;;;;14.75;40.38;96807.44;10411699;28;20262;-66
2023/05/08 17:28:00;;;;;;;6.70;2.30;;;;;;;14.85;41.43;96838.81;10413635;28;20216;-65
2023/05/08 17:33:02;;;;;;;2.72;2.05;;;;;;;14.45;42.86;96852.16;10413599;28;20729;-65
2023/05/08 17:38:02;;;;;;;2.47;1.42;;;;;;;14.40;45.17;96916.97;10410484;28;20217;-66
2023/05/08 17:43:03;;;;;;;2.42;1.70;;;;;;;13.55;48.48;96958.03;10413500;28;20205;-66
2023/05/08 17:48:04;;;;;;;2.00;1.67;;;;;;;13.23;52.30;97037.81;10413616;28;20243;-66
2023/05/08 17:53:04;;;;;;;2.15;1.60;;;;;;;12.70;53.57;97061.78;10413158;28;20203;-66
2023/05/08 17:58:04;;;;;;;1.67;1.52;;;;;;;12.97;55.21;97096.66;10412384;28;20319;-66
2023/05/08 18:03:05;;;;;;;7.50;5.53;;;;;;;12.41;57.26;97117.38;10412856;28;20204;-66
2023/05/08 18:08:05;;;;;;;3.40;1.60;;;;;;;12.12;58.08;97119.38;10412156;28;20217;-67
2023/05/08 18:13:06;;;;;;;2.97;1.60;;;;;;;12.05;59.34;97133.28;10411975;28;20189;-66
2023/05/08 18:18:06;;;;;;;3.88;2.10;;;;;;;11.69;60.01;97130.72;10411675;28;20232;-66
2023/05/08 18:23:07;;;;;;;3.08;1.98;;;;;;;11.36;61.41;97146.19;10411517;28;20185;-66
2023/05/08 18:28:07;;;;;;;5.93;3.83;;;;;;;11.18;62.39;97157.53;10411488;28;20212;-66
2023/05/08 18:33:07;;;;;;;2.67;2.13;;;;;;;11.10;64.15;97172.34;10411371;28;20716;-66
2023/05/08 18:38:08;;;;;;;5.13;2.15;;;;;;;10.94;64.88;97186.09;10410778;28;20714;-66
2023/05/08 18:43:08;;;;;;;7.30;2.47;;;;;;;10.23;66.13;97182.22;10411483;28;20200;-65
2023/05/08 18:48:09;;;;;;;5.43;2.40;;;;;;;10.13;67.46;97203.22;10410928;28;20211;-65
2023/05/08 18:53:09;;;;;;;5.53;2.50;;;;;;;9.98;69.67;97236.84;10410965;28;20323;-65
2023/05/08 18:58:11;;;;;;;3.27;2.43;;;;;;;8.55;74.64;97263.31;10416996;28;20281;-65
2023/05/08 19:03:11;;;;;;;3.73;2.20;;;;;;;8.69;76.94;97249.88;10418996;28;20192;-66
2023/05/08 19:08:12;;;;;;;2.83;2.13;;;;;;;8.48;79.97;97242.09;10418521;28;20231;-65
2023/05/08 19:13:12;;;;;;;2.27;1.87;;;;;;;8.57;78.90;97225.66;10418427;28;20193;-65
2023/05/08 19:18:13;;;;;;;3.30;2.40;;;;;;;8.31;80.45;97227.81;10418192;28;20278;-66
2023/05/08 19:23:16;;;;;;;3.90;2.60;;;;;;;7.95;81.91;97236.97;10418559;28;20204;-65
2023/05/08 19:28:16;;;;;;;4.67;2.77;;;;;;;7.71;83.90;97245.84;10418123;28;20209;-65
2023/05/08 19:33:19;;;;;;;2.43;2.23;;;;;;;7.65;85.35;97248.94;10417513;28;20192;-65
2023/05/08 19:38:19;;;;;;;7.10;2.93;;;;;;;7.54;86.46;97255.03;10417602;28;20229;-66
2023/05/08 19:43:20;;;;;;;5.20;2.53;;;;;;;7.26;88.83;97257.25;10417330;28;20663;-66
2023/05/08 19:48:20;;;;;;;10.00;3.40;;;;;;;7.13;90.48;97257.38;10416877;28;20228;-65
2023/05/08 19:53:21;;;;;;;4.70;3.20;;;;;;;7.08;92.93;97256.91;10416929;28;20188;-65
2023/05/08 19:58:21;;;;;;;5.73;2.70;;;;;;;7.08;92.82;97254.31;10416656;28;20221;-66
2023/05/08 20:03:22;;;;;;;4.43;2.73;;;;;;;7.01;93.20;97252.31;10416502;28;20192;-65
2023/05/08 20:08:22;;;;;;;4.33;3.27;;;;;;;6.99;93.06;97257.66;10416202;28;20208;-65
2023/05/08 20:13:23;;;;;;;3.00;2.67;;;;;;;6.89;93.89;97256.69;10416286;28;20258;-64
2023/05/08 20:18:24;;;;;;;6.17;2.90;;;;;;;6.69;95.92;97269.53;10416079;28;20263;-66
2023/05/08 20:23:24;;;;;;;4.93;3.03;;;;;;;6.69;95.08;97266.06;10415793;28;20192;-64
2023/05/08 20:28:24;;;;;;;6.37;3.33;;;;;;;6.31;97.93;97273.28;10415725;28;20224;-65
2023/05/08 20:33:25;;;;;;;5.67;2.93;;;;;;;6.14;100.00;97281.50;10415313;28;20200;-65
2023/05/08 20:38:25;;;;;;;4.73;3.23;;;;;;;6.10;100.00;97274.88;10415510;28;20668;-65
2023/05/08 20:43:26;;;;;;;5.30;3.53;;;;;;;6.01;100.00;97276.38;10415518;28;20188;-65
2023/05/08 20:48:26;;;;;;;6.67;3.60;;;;;;;5.94;100.00;97264.75;10415461;28;20219;-65
2023/05/08 20:53:26;;;;;;;4.30;3.60;;;;;;;5.88;100.00;97271.22;10415163;28;20203;-65
2023/05/08 20:58:27;;;;;;;7.33;3.47;;;;;;;5.82;100.00;97274.28;10414748;28;20224;-64
2023/05/08 21:03:58;;;;;;;6.43;3.70;;;;;;;5.63;100.00;97269.59;10416391;28;20200;-65
2023/05/08 21:08:59;;;;;;;5.47;4.27;;;;;;;5.41;100.00;97278.13;10416794;28;20216;-64
2023/05/08 21:13:59;;;;;;;7.90;4.47;;;;;;;5.43;100.00;97261.47;10414199;28;20201;-64
2023/05/08 21:19:00;;;;;;;4.27;3.30;;;;;;;5.47;100.00;97270.72;10416402;28;20236;-65
2023/05/08 21:24:00;;;;;;;4.47;3.70;;;;;;;5.36;100.00;97260.28;10416205;28;20197;-66
2023/05/08 21:29:03;;;;;;;4.67;3.73;;;;;;;5.28;100.00;97247.00;10413543;28;20244;-66
2023/05/08 21:34:03;;;;;;;5.10;3.93;;;;;;;5.13;100.00;97234.19;10413397;28;20196;-66
2023/05/08 21:39:03;;;;;;;7.07;4.37;;;;;;;5.03;100.00;97233.16;10414116;28;20228;-65
2023/05/08 21:44:04;;;;;;;4.80;3.50;;;;;;;5.45;100.00;97209.38;10412032;28;20216;-65
2023/05/08 21:49:04;;;;;;;4.20;3.73;;;;;;;6.44;92.50;97156.03;10413330;28;20215;-64
2023/05/08 21:54:05;;;;;;;5.67;3.47;;;;;;;7.36;81.14;97085.31;10412759;28;20215;-65
2023/05/08 21:59:06;;;;;;;6.23;4.00;;;;;;;7.77;76.39;97061.94;10412655;28;20276;-65
2023/05/08 22:04:06;;;;;;;5.40;2.67;;;;;;;8.01;73.42;97043.38;10412334;28;20188;-65
2023/05/08 22:09:06;;;;;;;8.33;3.20;;;;;;;8.04;72.08;97040.50;10411987;28;20207;-64
2023/05/08 22:14:07;;;;;;;6.00;3.40;;;;;;;7.92;72.26;97044.19;10410523;28;20207;-66
2023/05/08 22:19:07;;;;;;;4.10;3.20;;;;;;;8.10;70.31;97015.66;10411781;28;20236;-65
2023/05/08 22:24:08;;;;;;;4.67;3.40;;;;;;;8.11;69.57;97027.75;10411587;28;20196;-65
2023/05/08 22:29:08;;;;;;;5.23;3.17;;;;;;;8.09;69.51;97012.22;10411375;28;20216;-65
2023/05/08 22:34:09;;;;;;;3.97;3.47;;;;;;;7.86;70.14;97038.50;10411519;28;20218;-65
2023/05/08 22:39:09;;;;;;;5.37;3.63;;;;;;;7.89;69.69;97024.38;10411207;28;20247;-66
2023/05/08 22:44:10;;;;;;;7.43;3.47;;;;;;;7.88;69.63;97014.91;10411596;28;20203;-65
2023/05/08 22:49:10;;;;;;;6.93;3.80;;;;;;;7.81;70.18;97022.44;10411136;28;20242;-65
2023/05/08 22:54:10;;;;;;;5.07;3.20;;;;;;;7.87;69.40;97010.63;10411433;28;20610;-65
2023/05/08 22:59:11;;;;;;;4.00;2.50;;;;;;;7.81;70.16;97018.97;10410863;28;20259;-65
2023/05/08 23:04:11;;;;;;;4.67;3.30;;;;;;;7.70;71.18;97026.91;10411037;28;20196;-64
2023/05/08 23:09:11;;;;;;;6.83;3.70;;;;;;;7.61;71.37;97028.50;10410798;28;20263;-65
2023/05/08 23:14:12;;;;;;;6.10;3.43;;;;;;;7.56;71.20;97025.47;10410559;28;20189;-66
2023/05/08 23:19:12;;;;;;;5.93;3.83;;;;;;;7.56;71.36;97020.25;10430248;23;20323;-63